Fayetteville, AR

1:15 PM CDT on September 18, 2014 (GMT -0500)
Porter Road, Fayetteville | Change Station
CLOSE
Current Station
Personal Weather Station
Location: Fayetteville, AR
Elevation: 1260 ft
Nearby Weather Stations

Elev 1260 ft 36.08 °N, 94.19 °W | Updated 5 seconds ago

Mostly Cloudy
Mostly Cloudy
77.4 °F
Feels Like 79 °F
N
0.2
Wind Variable Wind from SSE
Gusts 2.5 mph

Today
High -- | Low -- °F
--% Chance of Precip.
Yesterday
High -- | Low -- °F
Precip. -- in
7:01 AM 7:19 PM
Waning Crescent, 25% visible
Pressure 29.93 in
Visibility 10.0 miles
Clouds Clear
Heat Index 79 °F
Dew Point 67 °F
Humidity 70%
Rainfall 0.11 in
Snow Depth Not available.
UV 9 out of 12
Pollen 9.20 out of 12
Air Quality Not available.
Flu Activity Not available.
METAR KFYV 181753Z 07009KT 10SM CLR 24/18 A2996 RMK AO2 SLP135 60001 T02440178 10250 20178 55012

More Conditions Fewer Conditions

Pressure 29.93 in
Visibility 10.0 miles
Clouds Clear
Heat Index 79 °F
Dew Point 67 °F
Humidity 70%
Rainfall 0.11 in
Snow Depth Not available.
UV 9 out of 12
Pollen 9.20 out of 12
Air Quality Not available.
Flu Activity Not available.
METAR KFYV 181753Z 07009KT 10SM CLR 24/18 A2996 RMK AO2 SLP135 60001 T02440178 10250 20178 55012

More Conditions Fewer Conditions

Nowcast | as of 11:49 am CDT on September 18, 2014

At 11:44 am... National Weather Service Doppler radar indicated isolated light showers and thunderstorms across a few areas of eastern Oklahoma. Through 1:30 PM... light rain showers are expected to continue to spread southward across eastern Oklahoma while weakening. Little additional rainfall is anticipated for most of eastern Oklahoma and northwest Arkansas. A few locations, generally along and north of Highway 412 in eastern Oklahoma however, could be affected by southward moving thunderstorm across southeast Kansas.

×

10-Day Weather Forecast

Almanac

Astronomy

Sep. 18, 2014 Rise Set
Actual Time 7:01 AM CDT 7:19 PM CDT
Civil Twilight 6:35 AM CDT 7:44 PM CDT
Nautical Twilight 6:05 AM CDT 8:14 PM CDT
Astronomical Twilight 5:35 AM CDT 8:45 PM CDT
Moon 2:01 AM CDT 4:04 PM CDT
Length of Visible Light 13h 09m
Length of Day
12h 17m
Tomorrow will be 2m 17s shorter.
Waning Crescent, 25% of the Moon is Illuminated
Today
Waning Crescent
Sep 24
New
Oct 1
First Quarter
Oct 8
Full
Oct 15
Last Quarter

Today's Extremes

State Highs State Lows

Community

WunderPhotos

Upload Photos

1,754,410 photos uploaded!

Nearby

Snow Depth

Station Depth Elevation
No new snow has been reported.

Earthquake Activity

City Distance Mag. Time & Date
No recent earthquake activity has been reported nearby.
Minimum magnitude displayed is 2.5.

Coastal Water Temperatures

Place Temperature
No Stations Reporting

Nearby Weather Stations